Time;durP1;ratioP1;P1;durP2;ratioP2;P2;SDS_P1;SDS_P2;PMS_P1;PMS_P2;Temp;Humidity;BMP_temperature;BMP_pressure;BME280_temperature;BME280_humidity;BME280_pressure;Samples;Min_cycle;Max_cycle;Signal;HPM_P1;HPM_P2
2023/03/01 00:02:20;;;;;;;21.33;12.80;;;2.20;73.40;;;;;;5010116;28;20034;-58
2023/03/01 00:04:46;;;;;;;23.17;12.55;;;2.20;73.40;;;;;;5011473;28;20505;-59
2023/03/01 00:07:12;;;;;;;21.52;12.80;;;2.20;73.40;;;;;;5009812;28;20489;-58
2023/03/01 00:09:39;;;;;;;21.88;13.43;;;2.20;73.80;;;;;;5012085;28;20405;-60
2023/03/01 00:12:05;;;;;;;22.52;12.82;;;2.20;73.50;;;;;;5012803;28;20060;-60
2023/03/01 00:14:31;;;;;;;21.38;12.88;;;2.10;73.50;;;;;;5013795;28;20136;-59
2023/03/01 00:16:56;;;;;;;23.58;13.75;;;2.20;73.60;;;;;;5012262;28;20033;-60
2023/03/01 00:19:22;;;;;;;23.98;12.70;;;2.20;73.60;;;;;;5014767;28;20046;-57
2023/03/01 00:21:48;;;;;;;22.17;13.02;;;2.10;73.50;;;;;;5010867;28;20037;-59
2023/03/01 00:24:14;;;;;;;22.85;13.60;;;2.10;73.50;;;;;;5013627;28;20038;-57
2023/03/01 00:26:40;;;;;;;21.40;12.98;;;2.10;73.60;;;;;;5011772;28;20037;-59
2023/03/01 00:29:06;;;;;;;22.33;12.68;;;2.10;73.60;;;;;;5009620;28;20398;-59
2023/03/01 00:31:32;;;;;;;25.20;13.38;;;2.10;73.60;;;;;;5007491;28;20446;-59
2023/03/01 00:34:01;;;;;;;20.40;13.32;;;2.10;73.80;;;;;;5008002;28;20036;-59
2023/03/01 00:36:30;;;;;;;22.85;13.15;;;2.10;74.00;;;;;;5009772;28;20033;-58
2023/03/01 00:38:55;;;;;;;24.08;13.93;;;2.10;74.00;;;;;;5008349;28;20056;-58
2023/03/01 00:41:22;;;;;;;22.98;13.55;;;2.00;73.80;;;;;;5009679;28;20038;-60
2023/03/01 00:43:48;;;;;;;21.55;12.90;;;2.00;74.00;;;;;;5013146;28;20567;-58
2023/03/01 00:46:20;;;;;;;24.08;13.75;;;2.00;74.00;;;;;;5010824;28;20129;-60
2023/03/01 00:48:46;;;;;;;24.10;12.73;;;2.00;74.10;;;;;;5010711;28;20049;-59
2023/03/01 00:51:12;;;;;;;23.77;13.55;;;2.00;74.10;;;;;;5015698;28;20034;-59
2023/03/01 00:53:39;;;;;;;23.85;13.48;;;2.00;74.30;;;;;;5011009;28;20525;-60
2023/03/01 00:56:06;;;;;;;23.33;13.43;;;2.00;74.40;;;;;;5016036;28;20083;-60
2023/03/01 00:58:32;;;;;;;23.35;13.18;;;2.00;74.40;;;;;;5016730;28;20053;-60
2023/03/01 01:00:58;;;;;;;25.08;14.05;;;2.00;74.50;;;;;;5016740;28;20124;-61
2023/03/01 01:03:27;;;;;;;22.13;13.50;;;2.00;74.60;;;;;;5017370;28;20133;-60
2023/03/01 01:05:53;;;;;;;22.05;13.00;;;2.00;74.50;;;;;;5017759;28;20383;-60
2023/03/01 01:08:20;;;;;;;20.75;13.75;;;2.00;74.60;;;;;;5018115;28;20417;-59
2023/03/01 01:10:46;;;;;;;21.65;13.68;;;2.00;74.50;;;;;;5015462;28;20080;-59
2023/03/01 01:13:12;;;;;;;21.98;13.98;;;2.00;74.60;;;;;;5017503;28;20057;-57
2023/03/01 01:15:38;;;;;;;23.42;14.18;;;2.00;74.70;;;;;;5014666;28;20044;-57
2023/03/01 01:18:04;;;;;;;30.00;15.07;;;2.10;74.60;;;;;;5017705;28;20026;-60
2023/03/01 01:20:30;;;;;;;23.42;13.00;;;2.00;74.60;;;;;;5015817;28;20069;-57
2023/03/01 01:22:56;;;;;;;23.42;13.88;;;2.00;74.60;;;;;;5015990;28;20438;-58
2023/03/01 01:25:24;;;;;;;22.70;13.95;;;2.10;74.70;;;;;;5014791;28;20324;-59
2023/03/01 01:27:50;;;;;;;22.30;13.68;;;2.00;74.70;;;;;;5010893;28;21522;-58
2023/03/01 01:30:16;;;;;;;23.40;13.15;;;2.10;74.70;;;;;;5009194;28;20034;-59
2023/03/01 01:32:42;;;;;;;24.73;14.85;;;2.10;74.80;;;;;;5007638;28;20120;-56
2023/03/01 01:35:07;;;;;;;21.98;13.93;;;2.10;74.80;;;;;;5011934;28;20084;-58
2023/03/01 01:37:33;;;;;;;23.50;14.25;;;2.10;74.80;;;;;;5008235;28;20460;-59
2023/03/01 01:39:59;;;;;;;23.00;13.68;;;2.10;75.00;;;;;;5014716;28;20216;-59
2023/03/01 01:42:25;;;;;;;23.42;14.10;;;2.10;74.80;;;;;;5013140;28;20070;-57
2023/03/01 01:45:28;;;;;;;23.35;14.43;;;2.20;75.00;;;;;;5013725;28;20099;-58
2023/03/01 01:47:58;;;;;;;23.38;13.35;;;2.10;76.20;;;;;;5010192;28;20045;-58
2023/03/01 01:50:24;;;;;;;22.60;14.18;;;2.10;74.90;;;;;;5013626;28;20038;-59
2023/03/01 01:52:51;;;;;;;25.92;15.23;;;2.10;74.90;;;;;;5012450;28;20315;-59
2023/03/01 01:55:25;;;;;;;25.30;15.10;;;2.10;75.00;;;;;;5014898;28;20087;-55
2023/03/01 01:57:58;;;;;;;24.30;14.70;;;2.10;75.10;;;;;;5008301;28;20064;-58
2023/03/01 02:00:26;;;;;;;22.60;14.13;;;2.10;75.20;;;;;;5012961;28;20042;-58
2023/03/01 02:02:56;;;;;;;25.83;15.00;;;2.10;75.20;;;;;;5012620;28;20106;-59
2023/03/01 02:05:34;;;;;;;24.30;14.73;;;2.00;75.20;;;;;;5011023;28;20046;-59
2023/03/01 02:08:01;;;;;;;28.20;16.05;;;2.10;75.30;;;;;;5011941;28;20062;-59
2023/03/01 02:10:27;;;;;;;24.58;14.30;;;2.10;75.20;;;;;;5014612;28;20108;-60
2023/03/01 02:12:54;;;;;;;25.88;16.10;;;2.00;75.10;;;;;;5003367;28;20040;-58
2023/03/01 02:15:19;;;;;;;27.63;15.73;;;2.00;75.30;;;;;;5011139;28;20148;-60
2023/03/01 02:17:45;;;;;;;25.95;14.45;;;2.00;75.30;;;;;;5010114;28;20042;-59
2023/03/01 02:20:14;;;;;;;26.77;15.23;;;2.00;75.30;;;;;;5009817;28;20084;-58
2023/03/01 02:22:39;;;;;;;27.30;14.88;;;2.00;75.40;;;;;;5010342;28;20038;-60
2023/03/01 02:25:17;;;;;;;24.17;14.93;;;2.00;75.40;;;;;;5008029;28;20378;-59
2023/03/01 02:28:15;;;;;;;27.77;15.50;;;2.00;75.50;;;;;;5009632;28;20049;-55
2023/03/01 02:33:35;;;;;;;26.90;15.27;;;2.00;75.50;;;;;;5009174;28;20595;-58
2023/03/01 02:36:04;;;;;;;23.35;14.48;;;2.00;75.30;;;;;;5008374;28;20037;-59
2023/03/01 02:38:31;;;;;;;27.50;15.35;;;2.00;75.50;;;;;;5009277;28;20034;-60
2023/03/01 02:40:57;;;;;;;26.95;15.20;;;2.10;75.60;;;;;;5008528;28;20052;-59
2023/03/01 02:43:27;;;;;;;25.00;15.48;;;2.10;75.70;;;;;;5013602;28;20038;-59
2023/03/01 02:45:56;;;;;;;27.20;15.55;;;2.00;75.50;;;;;;5012298;28;20537;-59
2023/03/01 02:48:22;;;;;;;28.95;16.27;;;2.10;75.50;;;;;;5009417;28;20516;-59
2023/03/01 02:50:56;;;;;;;26.98;15.15;;;2.10;75.60;;;;;;5009308;28;20061;-59
2023/03/01 02:53:55;;;;;;;29.00;16.23;;;2.10;75.70;;;;;;5010689;28;20034;-59
2023/03/01 02:56:21;;;;;;;26.00;15.10;;;2.10;75.70;;;;;;5006655;28;20034;-59
2023/03/01 02:58:51;;;;;;;32.30;15.80;;;2.10;75.60;;;;;;5005486;28;20049;-57
2023/03/01 03:01:20;;;;;;;30.33;16.10;;;2.10;75.50;;;;;;5011074;28;20045;-55
2023/03/01 03:03:45;;;;;;;29.00;16.63;;;2.10;75.60;;;;;;5010792;28;20049;-59
2023/03/01 03:06:11;;;;;;;26.80;16.35;;;2.10;75.50;;;;;;5011571;28;20041;-59
2023/03/01 03:08:37;;;;;;;28.23;15.88;;;2.10;75.60;;;;;;5011908;28;20544;-59
2023/03/01 03:11:02;;;;;;;28.67;16.38;;;2.10;75.50;;;;;;5013159;28;20127;-56
2023/03/01 03:13:28;;;;;;;26.10;15.82;;;2.10;75.50;;;;;;5010457;28;20040;-59
2023/03/01 03:15:55;;;;;;;28.65;15.27;;;2.10;75.50;;;;;;5008842;28;20045;-57
2023/03/01 03:18:22;;;;;;;29.75;16.30;;;2.10;75.60;;;;;;5012022;28;20037;-58
2023/03/01 03:20:52;;;;;;;26.67;16.15;;;2.10;75.50;;;;;;5007537;28;20041;-59
2023/03/01 03:23:18;;;;;;;26.05;16.13;;;2.20;75.60;;;;;;5012830;28;20049;-59
2023/03/01 03:25:44;;;;;;;26.15;16.00;;;2.10;75.60;;;;;;5007579;28;20042;-60
2023/03/01 03:28:10;;;;;;;30.48;17.08;;;2.10;75.50;;;;;;5005788;28;20037;-59
2023/03/01 03:30:38;;;;;;;28.95;16.02;;;2.10;75.60;;;;;;5006212;28;20038;-59
2023/03/01 03:33:05;;;;;;;27.23;16.63;;;2.10;75.60;;;;;;5004340;28;20058;-60
2023/03/01 03:35:39;;;;;;;31.10;17.73;;;2.10;75.60;;;;;;5009492;28;20034;-59
2023/03/01 03:38:09;;;;;;;31.33;16.98;;;2.10;75.70;;;;;;5008504;28;20592;-59
2023/03/01 03:40:39;;;;;;;29.98;17.20;;;2.10;75.60;;;;;;5012171;28;20037;-59
2023/03/01 03:43:16;;;;;;;27.48;16.52;;;2.10;75.60;;;;;;5008959;28;20025;-58
2023/03/01 03:45:44;;;;;;;28.42;16.60;;;2.10;76.40;;;;;;5009632;28;20038;-60
2023/03/01 03:48:10;;;;;;;31.08;17.90;;;2.10;75.60;;;;;;5008042;28;20038;-57
2023/03/01 03:50:38;;;;;;;27.48;15.98;;;2.10;75.70;;;;;;5012312;28;20132;-58
2023/03/01 03:53:06;;;;;;;26.70;16.50;;;2.10;75.70;;;;;;5014173;28;20044;-59
2023/03/01 03:55:33;;;;;;;29.75;16.70;;;2.10;75.70;;;;;;5009635;28;20116;-60
2023/03/01 03:58:06;;;;;;;30.67;17.65;;;2.10;75.90;;;;;;5009109;28;20504;-59
2023/03/01 04:00:33;;;;;;;29.65;16.80;;;2.10;75.90;;;;;;5003485;28;20091;-60
2023/03/01 04:02:59;;;;;;;29.27;17.15;;;2.10;75.80;;;;;;5005141;28;20030;-61
2023/03/01 04:05:24;;;;;;;27.65;16.95;;;2.10;75.70;;;;;;5009487;28;20040;-59
2023/03/01 04:08:00;;;;;;;27.52;17.00;;;2.10;75.90;;;;;;5006064;28;20056;-59
2023/03/01 04:10:27;;;;;;;29.02;17.02;;;2.10;75.80;;;;;;5009606;28;20525;-58
2023/03/01 04:12:53;;;;;;;29.02;16.92;;;2.20;75.80;;;;;;5006670;28;20026;-60
2023/03/01 04:15:18;;;;;;;28.50;16.67;;;2.20;75.90;;;;;;5011263;28;20095;-58
2023/03/01 04:17:46;;;;;;;28.75;16.55;;;2.20;75.90;;;;;;5005888;28;20054;-58
2023/03/01 04:20:17;;;;;;;31.38;17.38;;;2.20;75.80;;;;;;5009128;28;20037;-59
2023/03/01 04:22:46;;;;;;;30.35;17.33;;;2.20;75.70;;;;;;5007999;28;20076;-59
2023/03/01 04:25:14;;;;;;;28.65;16.77;;;2.20;75.70;;;;;;5005624;28;20127;-58
2023/03/01 04:27:40;;;;;;;27.17;16.00;;;2.20;75.70;;;;;;5007047;28;20034;-59
2023/03/01 04:30:07;;;;;;;29.25;17.02;;;2.20;75.70;;;;;;5008297;28;20026;-60
2023/03/01 04:32:32;;;;;;;29.90;17.83;;;2.20;75.70;;;;;;5001835;28;20042;-58
2023/03/01 04:34:58;;;;;;;28.05;16.98;;;2.20;75.60;;;;;;5004560;28;20036;-59
2023/03/01 04:37:25;;;;;;;27.52;16.67;;;2.20;75.50;;;;;;5004522;28;20057;-59
2023/03/01 04:39:50;;;;;;;29.52;16.92;;;2.20;75.50;;;;;;5004306;28;20517;-59
2023/03/01 04:42:16;;;;;;;29.42;16.60;;;2.20;75.50;;;;;;5006384;28;20044;-60
2023/03/01 04:44:43;;;;;;;29.02;16.52;;;2.20;75.50;;;;;;5004065;28;20042;-60
2023/03/01 04:47:08;;;;;;;31.95;18.10;;;2.20;75.50;;;;;;5010469;28;20030;-59
2023/03/01 04:49:34;;;;;;;30.42;17.08;;;2.20;75.70;;;;;;5007722;28;20040;-58
2023/03/01 04:52:01;;;;;;;32.15;17.10;;;2.30;75.60;;;;;;5010718;28;20039;-60
2023/03/01 04:54:28;;;;;;;28.40;16.65;;;2.30;75.50;;;;;;5007935;28;20037;-61
2023/03/01 04:56:54;;;;;;;32.70;17.15;;;2.30;75.60;;;;;;5011484;28;20070;-59
2023/03/01 04:59:22;;;;;;;29.75;17.60;;;2.20;75.50;;;;;;5008928;28;20049;-58
2023/03/01 05:01:51;;;;;;;31.25;17.10;;;2.30;75.50;;;;;;5006677;28;20042;-61
2023/03/01 05:04:17;;;;;;;30.15;16.95;;;2.30;75.50;;;;;;5007554;28;20456;-59
2023/03/01 05:06:44;;;;;;;31.70;17.80;;;2.30;75.50;;;;;;5005686;28;20529;-59
2023/03/01 05:09:11;;;;;;;36.33;18.92;;;2.30;75.50;;;;;;5006295;28;20943;-56
2023/03/01 05:11:37;;;;;;;31.50;17.35;;;2.30;75.50;;;;;;5010611;28;20041;-58
2023/03/01 05:14:03;;;;;;;32.30;18.27;;;2.30;75.50;;;;;;5003695;28;20387;-59
2023/03/01 05:16:30;;;;;;;35.55;18.83;;;2.30;75.50;;;;;;5004858;28;20057;-58
2023/03/01 05:18:56;;;;;;;32.60;17.83;;;2.30;75.50;;;;;;5007573;28;20068;-57
2023/03/01 05:21:22;;;;;;;30.23;18.30;;;2.30;75.50;;;;;;5008254;28;20030;-58
2023/03/01 05:23:48;;;;;;;29.20;16.92;;;2.30;75.50;;;;;;5006198;28;20441;-59
2023/03/01 05:26:14;;;;;;;30.05;17.20;;;2.30;75.50;;;;;;5012723;28;20041;-59
2023/03/01 05:28:40;;;;;;;28.73;16.80;;;2.30;75.50;;;;;;5007953;28;20038;-60
2023/03/01 05:31:09;;;;;;;29.40;17.05;;;2.40;75.50;;;;;;5010047;28;20041;-58
2023/03/01 05:33:39;;;;;;;29.30;17.05;;;2.40;76.30;;;;;;5011591;28;20448;-54
2023/03/01 05:36:07;;;;;;;27.73;16.13;;;2.40;75.40;;;;;;5006984;28;20542;-58
2023/03/01 05:38:33;;;;;;;27.38;16.73;;;2.40;75.40;;;;;;5008142;28;20038;-59
2023/03/01 05:40:58;;;;;;;27.80;16.23;;;2.40;75.30;;;;;;5007856;28;20485;-58
2023/03/01 05:43:24;;;;;;;30.52;17.75;;;2.40;75.30;;;;;;5018536;28;20038;-56
2023/03/01 05:45:50;;;;;;;29.35;17.48;;;2.40;75.30;;;;;;5016718;28;20083;-56
2023/03/01 05:48:19;;;;;;;28.33;15.98;;;2.40;75.30;;;;;;5015892;28;20034;-58
2023/03/01 05:50:47;;;;;;;27.15;15.73;;;2.50;75.30;;;;;;5013651;28;20121;-58
2023/03/01 05:53:19;;;;;;;35.72;18.52;;;2.50;75.20;;;;;;5017614;28;20034;-59
2023/03/01 05:55:47;;;;;;;29.13;16.60;;;2.40;75.20;;;;;;5014598;28;20571;-59
2023/03/01 05:58:15;;;;;;;28.42;16.38;;;2.50;75.20;;;;;;5015797;28;20618;-56
2023/03/01 06:00:41;;;;;;;28.63;16.98;;;2.40;75.20;;;;;;5015641;28;20042;-60
2023/03/01 06:03:10;;;;;;;24.27;15.98;;;2.40;75.20;;;;;;5016555;28;20069;-58
2023/03/01 06:05:36;;;;;;;27.23;16.13;;;2.40;75.20;;;;;;5014847;28;20539;-56
2023/03/01 06:08:02;;;;;;;28.60;16.65;;;2.40;75.20;;;;;;5017783;28;20044;-58
2023/03/01 06:10:28;;;;;;;28.75;16.63;;;2.40;75.20;;;;;;5018385;28;20124;-56
2023/03/01 06:12:54;;;;;;;29.73;16.65;;;2.40;75.20;;;;;;5015981;28;20097;-58
2023/03/01 06:15:20;;;;;;;30.92;17.25;;;2.40;75.30;;;;;;5016412;28;20113;-59
2023/03/01 06:17:46;;;;;;;29.02;17.02;;;2.40;75.30;;;;;;5017266;28;20402;-60
2023/03/01 06:20:18;;;;;;;30.50;17.05;;;2.40;75.30;;;;;;5016938;28;20025;-57
2023/03/01 06:22:44;;;;;;;26.88;16.55;;;2.40;75.30;;;;;;5014112;28;20042;-58
2023/03/01 06:25:12;;;;;;;26.52;16.20;;;2.40;75.30;;;;;;5015094;28;20040;-58
2023/03/01 06:27:38;;;;;;;29.85;17.85;;;2.40;75.30;;;;;;5015609;28;20139;-60
2023/03/01 06:30:04;;;;;;;28.33;16.67;;;2.40;75.30;;;;;;5016478;28;20033;-59
2023/03/01 06:32:30;;;;;;;33.30;17.65;;;2.40;75.20;;;;;;5014843;28;20034;-58
2023/03/01 06:34:58;;;;;;;30.23;17.65;;;2.40;75.30;;;;;;5016831;28;20088;-58
2023/03/01 06:37:24;;;;;;;29.65;17.70;;;2.40;75.40;;;;;;5014707;28;20038;-59
2023/03/01 06:39:50;;;;;;;30.50;17.58;;;2.40;75.30;;;;;;5015749;28;20443;-57
2023/03/01 06:42:15;;;;;;;27.27;16.70;;;2.30;75.30;;;;;;5014209;28;20037;-59
2023/03/01 06:44:41;;;;;;;31.73;17.55;;;2.30;75.50;;;;;;5015206;28;20038;-61
2023/03/01 06:47:06;;;;;;;31.48;18.10;;;2.30;75.60;;;;;;5014179;28;20026;-57
2023/03/01 06:49:32;;;;;;;28.67;16.80;;;2.30;75.60;;;;;;5015896;28;20045;-59
2023/03/01 06:51:57;;;;;;;27.08;16.58;;;2.40;75.70;;;;;;5016402;28;20401;-57
2023/03/01 06:54:23;;;;;;;29.73;17.30;;;2.30;75.70;;;;;;5016189;28;20448;-58
2023/03/01 06:56:50;;;;;;;29.15;16.98;;;2.40;75.80;;;;;;5014856;28;20041;-58
2023/03/01 06:59:16;;;;;;;26.85;16.75;;;2.30;75.70;;;;;;5015190;28;20167;-58
2023/03/01 07:01:43;;;;;;;31.42;17.63;;;2.30;75.70;;;;;;5016306;28;20043;-57
2023/03/01 07:04:09;;;;;;;32.47;17.98;;;2.40;75.70;;;;;;5015537;28;20061;-57
2023/03/01 07:06:34;;;;;;;32.60;18.05;;;2.30;75.70;;;;;;5015899;28;20512;-59
2023/03/01 07:09:00;;;;;;;28.25;17.33;;;2.30;75.70;;;;;;5015260;28;20509;-60
2023/03/01 07:11:26;;;;;;;31.65;18.23;;;2.40;75.80;;;;;;5016740;28;20049;-60
2023/03/01 07:13:51;;;;;;;28.33;17.75;;;2.30;75.70;;;;;;5015153;28;20066;-56
2023/03/01 07:16:17;;;;;;;27.80;16.45;;;2.30;75.70;;;;;;5015034;28;20033;-58
2023/03/01 07:18:43;;;;;;;28.65;17.50;;;2.30;75.60;;;;;;5015427;28;20034;-57
2023/03/01 07:21:11;;;;;;;29.80;17.65;;;2.30;75.50;;;;;;5015126;28;20109;-59
2023/03/01 07:23:36;;;;;;;29.77;17.48;;;2.30;75.30;;;;;;5015876;28;20513;-58
2023/03/01 07:26:02;;;;;;;30.50;17.52;;;2.30;75.30;;;;;;5015361;28;20109;-58
2023/03/01 07:28:28;;;;;;;32.63;17.55;;;2.30;75.30;;;;;;5015087;28;20049;-59
2023/03/01 07:30:54;;;;;;;30.63;17.42;;;2.30;75.30;;;;;;5016373;28;20021;-58
2023/03/01 07:33:20;;;;;;;33.10;17.48;;;2.30;75.30;;;;;;5016178;28;20405;-56
2023/03/01 07:35:46;;;;;;;29.63;17.23;;;2.30;75.30;;;;;;5014553;28;20034;-58
2023/03/01 07:38:12;;;;;;;33.63;19.25;;;2.30;75.20;;;;;;5014974;28;20073;-57
2023/03/01 07:40:37;;;;;;;29.60;17.35;;;2.20;75.20;;;;;;5012922;28;20041;-58
2023/03/01 07:43:03;;;;;;;29.85;16.77;;;2.20;75.10;;;;;;5014170;28;20036;-57
2023/03/01 07:45:29;;;;;;;31.40;17.40;;;2.30;75.20;;;;;;5015547;28;20042;-58
2023/03/01 07:47:55;;;;;;;29.25;17.98;;;2.20;75.10;;;;;;5013508;28;20037;-60
2023/03/01 07:50:22;;;;;;;31.50;17.08;;;2.30;75.20;;;;;;5015331;28;20038;-59
2023/03/01 07:52:49;;;;;;;28.42;17.23;;;2.20;75.20;;;;;;5013880;28;20140;-61
2023/03/01 07:55:16;;;;;;;28.83;17.17;;;2.20;75.20;;;;;;5014896;28;20064;-59
2023/03/01 07:57:42;;;;;;;27.95;16.95;;;2.20;75.20;;;;;;5012663;28;20053;-59
2023/03/01 08:00:11;;;;;;;30.95;18.17;;;2.30;75.20;;;;;;5015762;28;20532;-61
2023/03/01 08:02:36;;;;;;;32.47;17.45;;;2.30;75.30;;;;;;5014427;28;20041;-59
2023/03/01 08:05:02;;;;;;;28.08;17.10;;;2.30;75.30;;;;;;5015163;28;20030;-58
2023/03/01 08:07:27;;;;;;;28.63;17.67;;;2.30;75.30;;;;;;5013870;28;20132;-58
2023/03/01 08:09:53;;;;;;;28.88;17.55;;;2.30;75.30;;;;;;5013523;28;20042;-60
2023/03/01 08:12:19;;;;;;;30.20;17.30;;;2.30;75.30;;;;;;5016411;28;20537;-57
2023/03/01 08:14:44;;;;;;;31.98;17.67;;;2.30;75.20;;;;;;5014197;28;20464;-60
2023/03/01 08:17:10;;;;;;;32.42;17.90;;;2.40;75.20;;;;;;5013896;28;20139;-59
2023/03/01 08:19:35;;;;;;;28.98;17.25;;;2.40;75.00;;;;;;5015503;28;20532;-59
2023/03/01 08:22:02;;;;;;;32.22;17.95;;;2.40;75.10;;;;;;5014757;28;20089;-59
2023/03/01 08:24:28;;;;;;;31.48;17.25;;;2.40;75.10;;;;;;5010702;28;20125;-61
2023/03/01 08:26:54;;;;;;;31.60;18.23;;;2.40;75.00;;;;;;5013234;28;20037;-60
2023/03/01 08:29:19;;;;;;;31.40;17.40;;;2.50;75.10;;;;;;5015258;28;20048;-59
2023/03/01 08:31:45;;;;;;;28.38;17.05;;;2.50;75.00;;;;;;5013334;28;20037;-61
2023/03/01 08:34:13;;;;;;;31.05;17.60;;;2.50;74.90;;;;;;5015166;28;20074;-58
2023/03/01 08:36:41;;;;;;;29.30;18.17;;;2.50;74.80;;;;;;5013478;28;20378;-60
2023/03/01 08:39:08;;;;;;;29.05;17.35;;;2.60;74.90;;;;;;5014483;28;20033;-59
2023/03/01 08:41:34;;;;;;;34.38;20.73;;;2.60;74.90;;;;;;5013598;28;20038;-60
2023/03/01 08:44:00;;;;;;;31.38;17.88;;;2.70;74.90;;;;;;5014476;28;20046;-59
2023/03/01 08:46:31;;;;;;;31.85;18.15;;;2.70;74.80;;;;;;5013577;28;20033;-59
2023/03/01 08:48:56;;;;;;;31.88;17.73;;;2.70;74.80;;;;;;5013542;28;20045;-60
2023/03/01 08:51:23;;;;;;;29.67;18.13;;;2.70;74.80;;;;;;5015349;28;20384;-59
2023/03/01 08:53:49;;;;;;;29.35;17.38;;;2.70;74.50;;;;;;5014252;28;20070;-61
2023/03/01 08:56:16;;;;;;;30.75;17.25;;;2.80;74.50;;;;;;5013431;28;20711;-59
2023/03/01 08:58:46;;;;;;;29.52;17.15;;;2.80;74.40;;;;;;5011692;28;20029;-60
2023/03/01 09:01:15;;;;;;;28.33;17.17;;;2.80;74.30;;;;;;5015196;28;20137;-59
2023/03/01 09:03:41;;;;;;;29.75;17.17;;;2.90;74.50;;;;;;5015293;28;20450;-60
2023/03/01 09:06:07;;;;;;;30.30;17.90;;;2.90;74.30;;;;;;5018218;28;20034;-60
2023/03/01 09:08:37;;;;;;;31.67;18.33;;;2.90;74.00;;;;;;5018730;28;20045;-58
2023/03/01 09:11:05;;;;;;;29.92;17.17;;;2.90;73.90;;;;;;5017605;28;20490;-57
2023/03/01 09:13:31;;;;;;;28.98;16.90;;;3.00;74.00;;;;;;5015682;28;20036;-58
2023/03/01 09:15:57;;;;;;;29.83;17.58;;;3.00;74.00;;;;;;5019116;28;20030;-55
2023/03/01 09:18:23;;;;;;;29.10;17.85;;;3.00;74.00;;;;;;5017562;28;20467;-58
2023/03/01 09:20:49;;;;;;;30.17;17.40;;;3.00;74.00;;;;;;5017813;28;20037;-59
2023/03/01 09:23:14;;;;;;;29.23;17.60;;;3.10;73.90;;;;;;5019151;28;20033;-59
2023/03/01 09:25:40;;;;;;;31.77;18.88;;;3.10;73.70;;;;;;5016563;28;20052;-57
2023/03/01 09:28:05;;;;;;;31.45;17.70;;;3.10;73.60;;;;;;5018193;28;20038;-59
2023/03/01 09:30:31;;;;;;;31.63;17.15;;;3.10;73.70;;;;;;5018654;28;20029;-57
2023/03/01 09:32:57;;;;;;;28.88;17.15;;;3.10;73.70;;;;;;5016903;28;20041;-56
2023/03/01 09:35:23;;;;;;;31.20;17.27;;;3.10;73.60;;;;;;5017650;28;20557;-57
2023/03/01 09:37:49;;;;;;;31.75;18.73;;;3.10;73.60;;;;;;5018293;28;20136;-58
2023/03/01 09:40:19;;;;;;;29.98;18.75;;;3.20;73.60;;;;;;5017291;28;20056;-60
2023/03/01 09:42:53;;;;;;;31.73;18.60;;;3.20;73.40;;;;;;5016848;28;20037;-59
2023/03/01 09:45:43;;;;;;;30.83;18.50;;;3.20;73.30;;;;;;5018353;28;20401;-59
2023/03/01 09:48:15;;;;;;;32.40;18.33;;;3.20;73.40;;;;;;5018403;28;20483;-60
2023/03/01 09:50:43;;;;;;;29.48;17.92;;;3.20;73.50;;;;;;5018409;28;20452;-59
2023/03/01 09:53:16;;;;;;;30.52;17.45;;;3.20;73.60;;;;;;5018028;28;20088;-60
2023/03/01 09:56:00;;;;;;;33.13;17.85;;;3.20;74.40;;;;;;5017135;28;20041;-60
2023/03/01 09:58:39;;;;;;;32.42;18.25;;;3.30;73.40;;;;;;5016765;28;20061;-58
2023/03/01 10:01:22;;;;;;;31.88;17.65;;;3.30;73.30;;;;;;5018091;28;20034;-60
2023/03/01 10:04:21;;;;;;;31.90;18.10;;;3.30;73.40;;;;;;5016886;28;20030;-59
2023/03/01 10:07:01;;;;;;;34.00;18.60;;;3.30;73.50;;;;;;5014354;28;20041;-60
2023/03/01 10:09:31;;;;;;;31.85;17.90;;;3.30;73.50;;;;;;5015891;28;20065;-60
2023/03/01 10:11:58;;;;;;;35.25;18.92;;;3.30;74.30;;;;;;5014542;28;20026;-60
2023/03/01 10:14:51;;;;;;;31.40;17.77;;;3.30;73.40;;;;;;5016527;28;20036;-59
2023/03/01 10:17:47;;;;;;;31.98;17.50;;;3.30;73.20;;;;;;5017209;28;20111;-59
2023/03/01 10:20:53;;;;;;;33.53;17.83;;;3.40;73.30;;;;;;5017490;28;20058;-59
2023/03/01 10:23:19;;;;;;;31.00;17.15;;;3.40;73.20;;;;;;5009953;28;20509;-59
2023/03/01 10:26:07;;;;;;;29.40;17.10;;;3.40;73.30;;;;;;5018889;28;20049;-60
2023/03/01 10:28:44;;;;;;;34.08;18.45;;;3.40;73.30;;;;;;5017084;28;20036;-57
2023/03/01 10:31:20;;;;;;;31.45;18.20;;;3.40;73.40;;;;;;5016556;28;20033;-58
2023/03/01 10:33:47;;;;;;;30.88;18.10;;;3.40;73.20;;;;;;5016402;28;20076;-59
2023/03/01 10:36:13;;;;;;;33.67;18.27;;;3.40;73.30;;;;;;5015475;28;20634;-60
2023/03/01 10:38:54;;;;;;;33.47;18.35;;;3.50;73.40;;;;;;5016488;28;20551;-60
2023/03/01 10:41:24;;;;;;;33.40;18.65;;;3.50;73.40;;;;;;5016506;28;20474;-60
2023/03/01 10:43:56;;;;;;;33.30;18.92;;;3.50;73.30;;;;;;5012899;28;20046;-59
2023/03/01 10:46:24;;;;;;;33.38;18.48;;;3.50;72.90;;;;;;5017173;28;20121;-59
2023/03/01 10:49:13;;;;;;;30.83;17.80;;;3.50;73.10;;;;;;5016568;28;20115;-59
2023/03/01 10:51:41;;;;;;;32.50;18.27;;;3.60;73.10;;;;;;5016022;28;20452;-61
2023/03/01 10:54:17;;;;;;;33.05;18.75;;;3.60;73.10;;;;;;5016235;28;20121;-61
2023/03/01 10:56:55;;;;;;;30.90;17.88;;;3.60;72.90;;;;;;5011386;28;20037;-60
2023/03/01 10:59:30;;;;;;;34.97;18.55;;;3.60;73.00;;;;;;5014895;28;20129;-59
2023/03/01 11:02:14;;;;;;;;;;;3.70;73.00;;;;;;5017030;28;20536;-61
2023/03/01 11:04:39;;;;;;;34.05;17.77;;;3.70;72.90;;;;;;5013489;28;19908;-61
2023/03/01 11:07:05;;;;;;;30.77;17.75;;;3.70;72.90;;;;;;5015222;28;20152;-62
2023/03/01 11:09:38;;;;;;;33.90;19.13;;;3.70;72.90;;;;;;5015804;28;20071;-60
2023/03/01 11:12:12;;;;;;;31.25;18.05;;;3.80;73.10;;;;;;5012123;28;20038;-61
2023/03/01 11:14:45;;;;;;;30.65;17.88;;;3.80;72.90;;;;;;5014299;28;20065;-61
2023/03/01 11:17:38;;;;;;;31.88;18.58;;;3.80;72.90;;;;;;5015818;28;20413;-62
2023/03/01 11:20:23;;;;;;;35.55;18.05;;;3.90;72.90;;;;;;5012231;28;20128;-62
2023/03/01 11:22:59;;;;;;;32.50;18.17;;;3.90;72.80;;;;;;5013542;28;20053;-62
2023/03/01 11:25:37;;;;;;;33.22;17.77;;;3.90;72.60;;;;;;5014910;28;20037;-62
2023/03/01 11:28:05;;;;;;;38.47;19.73;;;4.00;72.70;;;;;;5013940;28;20048;-61
2023/03/01 11:30:38;;;;;;;31.77;18.60;;;4.00;72.70;;;;;;5015854;28;20022;-62
2023/03/01 11:33:41;;;;;;;33.22;19.25;;;4.10;72.80;;;;;;5015177;28;20037;-63
2023/03/01 11:36:17;;;;;;;33.53;18.13;;;4.10;72.50;;;;;;5015327;28;20026;-61
2023/03/01 11:38:43;;;;;;;32.00;18.65;;;4.10;72.60;;;;;;5014654;28;20047;-61
2023/03/01 11:41:28;;;;;;;30.92;17.60;;;4.10;72.40;;;;;;5014648;28;20042;-62
2023/03/01 11:44:17;;;;;;;31.30;17.50;;;4.20;72.20;;;;;;5014197;28;20548;-62
2023/03/01 11:46:55;;;;;;;32.05;17.60;;;4.20;72.20;;;;;;5014321;28;20033;-63
2023/03/01 11:49:26;;;;;;;29.20;17.85;;;4.20;72.30;;;;;;5014515;28;20517;-63
2023/03/01 11:52:01;;;;;;;31.30;18.40;;;4.30;72.30;;;;;;5015530;28;20041;-61
2023/03/01 11:54:36;;;;;;;28.40;17.60;;;4.30;72.20;;;;;;5014527;28;20266;-61
2023/03/01 11:57:31;;;;;;;27.98;16.77;;;4.30;72.00;;;;;;5013588;28;20044;-62
2023/03/01 12:00:03;;;;;;;33.22;18.25;;;4.30;72.50;;;;;;5014316;28;20029;-62
2023/03/01 12:02:43;;;;;;;31.10;17.75;;;4.30;71.80;;;;;;5014130;28;20065;-62
2023/03/01 12:05:21;;;;;;;30.92;18.17;;;4.30;72.00;;;;;;5015143;28;20030;-61
2023/03/01 12:07:52;;;;;;;31.52;17.42;;;4.40;72.00;;;;;;5013167;28;20038;-61
2023/03/01 12:10:28;;;;;;;31.70;17.83;;;4.40;71.90;;;;;;5016014;28;20038;-63
2023/03/01 12:13:12;;;;;;;28.58;16.88;;;4.40;72.00;;;;;;4998265;28;20042;-63
2023/03/01 12:15:51;;;;;;;28.92;17.15;;;4.50;72.00;;;;;;5015814;28;20033;-63
2023/03/01 12:18:49;;;;;;;26.65;16.80;;;4.50;72.00;;;;;;5014752;28;20128;-63
2023/03/01 12:21:33;;;;;;;26.42;16.13;;;4.60;72.00;;;;;;5015142;28;20072;-62
2023/03/01 12:24:33;;;;;;;36.58;17.70;;;4.70;72.30;;;;;;5016703;28;20604;-62
2023/03/01 12:27:33;;;;;;;29.00;15.73;;;4.70;72.20;;;;;;5012727;28;20034;-62
2023/03/01 12:30:24;;;;;;;25.35;15.60;;;4.80;72.00;;;;;;5014258;28;20056;-63
2023/03/01 12:33:01;;;;;;;29.98;18.05;;;4.90;71.80;;;;;;5014143;28;20414;-62
2023/03/01 12:35:38;;;;;;;28.42;17.55;;;4.90;72.70;;;;;;5011755;28;20262;-63
2023/03/01 12:38:38;;;;;;;28.15;16.95;;;5.00;71.90;;;;;;5015507;28;20560;-61
2023/03/01 12:41:43;;;;;;;31.10;17.85;;;5.10;71.60;;;;;;5012167;28;20046;-62
2023/03/01 12:44:14;;;;;;;29.73;17.58;;;5.20;71.50;;;;;;5013377;28;20083;-62
2023/03/01 12:47:03;;;;;;;26.52;16.38;;;5.30;72.40;;;;;;5013536;28;20102;-62
2023/03/01 12:49:40;;;;;;;31.08;18.88;;;5.30;71.10;;;;;;5015000;28;20045;-61
2023/03/01 12:52:43;;;;;;;32.78;19.83;;;5.40;71.30;;;;;;5013963;28;20643;-61
2023/03/01 12:55:24;;;;;;;30.98;18.80;;;5.40;69.80;;;;;;5014402;28;20564;-62
2023/03/01 12:58:01;;;;;;;31.67;19.25;;;5.50;69.90;;;;;;5012843;28;20457;-62